sensor_id;sensor_type;location;lat;lon;timestamp;P1;durP1;ratioP1;P2;durP2;ratioP2
82705;SDS011;72428;41.978;21.464;2024-02-26T00:01:26;28.85;;;18.95;;
82705;SDS011;72428;41.978;21.464;2024-02-26T00:03:52;29.63;;;17.50;;
82705;SDS011;72428;41.978;21.464;2024-02-26T00:06:20;28.83;;;16.50;;
82705;SDS011;72428;41.978;21.464;2024-02-26T00:08:46;35.25;;;19.27;;
82705;SDS011;72428;41.978;21.464;2024-02-26T00:11:12;30.48;;;17.33;;
82705;SDS011;72428;41.978;21.464;2024-02-26T00:13:38;29.35;;;19.58;;
82705;SDS011;72428;41.978;21.464;2024-02-26T00:16:04;30.35;;;17.85;;
82705;SDS011;72428;41.978;21.464;2024-02-26T00:18:31;33.03;;;16.98;;
82705;SDS011;72428;41.978;21.464;2024-02-26T00:20:57;29.95;;;18.98;;
82705;SDS011;72428;41.978;21.464;2024-02-26T00:23:23;32.67;;;18.73;;
82705;SDS011;72428;41.978;21.464;2024-02-26T00:25:49;32.00;;;18.48;;
82705;SDS011;72428;41.978;21.464;2024-02-26T00:28:16;29.45;;;17.92;;
82705;SDS011;72428;41.978;21.464;2024-02-26T00:30:42;33.88;;;18.08;;
82705;SDS011;72428;41.978;21.464;2024-02-26T00:33:08;36.47;;;18.58;;
82705;SDS011;72428;41.978;21.464;2024-02-26T00:35:35;33.85;;;22.00;;
82705;SDS011;72428;41.978;21.464;2024-02-26T00:38:01;34.30;;;19.92;;
82705;SDS011;72428;41.978;21.464;2024-02-26T00:40:28;33.70;;;20.70;;
82705;SDS011;72428;41.978;21.464;2024-02-26T00:42:54;38.55;;;23.17;;
82705;SDS011;72428;41.978;21.464;2024-02-26T00:45:20;32.17;;;19.90;;
82705;SDS011;72428;41.978;21.464;2024-02-26T00:47:46;34.50;;;18.52;;
82705;SDS011;72428;41.978;21.464;2024-02-26T00:50:14;33.53;;;18.38;;
82705;SDS011;72428;41.978;21.464;2024-02-26T00:52:40;24.73;;;16.50;;
82705;SDS011;72428;41.978;21.464;2024-02-26T00:55:07;25.33;;;15.00;;
82705;SDS011;72428;41.978;21.464;2024-02-26T00:57:33;24.42;;;15.82;;
82705;SDS011;72428;41.978;21.464;2024-02-26T00:59:59;27.15;;;16.13;;
82705;SDS011;72428;41.978;21.464;2024-02-26T01:02:26;31.25;;;18.33;;
82705;SDS011;72428;41.978;21.464;2024-02-26T01:04:52;31.23;;;19.08;;
82705;SDS011;72428;41.978;21.464;2024-02-26T01:07:18;35.55;;;20.48;;
82705;SDS011;72428;41.978;21.464;2024-02-26T01:09:44;29.42;;;18.25;;
82705;SDS011;72428;41.978;21.464;2024-02-26T01:12:10;22.88;;;15.52;;
82705;SDS011;72428;41.978;21.464;2024-02-26T01:14:36;34.45;;;19.63;;
82705;SDS011;72428;41.978;21.464;2024-02-26T01:17:03;30.42;;;17.55;;
82705;SDS011;72428;41.978;21.464;2024-02-26T01:19:29;32.33;;;17.98;;
82705;SDS011;72428;41.978;21.464;2024-02-26T01:21:55;36.58;;;19.77;;
82705;SDS011;72428;41.978;21.464;2024-02-26T01:24:21;29.60;;;18.88;;
82705;SDS011;72428;41.978;21.464;2024-02-26T01:26:47;24.63;;;16.40;;
82705;SDS011;72428;41.978;21.464;2024-02-26T01:29:13;25.40;;;16.27;;
82705;SDS011;72428;41.978;21.464;2024-02-26T01:31:39;31.15;;;17.50;;
82705;SDS011;72428;41.978;21.464;2024-02-26T01:34:05;23.67;;;15.25;;
82705;SDS011;72428;41.978;21.464;2024-02-26T01:36:31;29.27;;;19.80;;
82705;SDS011;72428;41.978;21.464;2024-02-26T01:38:59;32.97;;;18.95;;
82705;SDS011;72428;41.978;21.464;2024-02-26T01:41:25;31.45;;;17.73;;
82705;SDS011;72428;41.978;21.464;2024-02-26T01:43:51;28.85;;;18.05;;
82705;SDS011;72428;41.978;21.464;2024-02-26T01:46:17;27.35;;;16.83;;
82705;SDS011;72428;41.978;21.464;2024-02-26T01:48:44;25.38;;;16.65;;
82705;SDS011;72428;41.978;21.464;2024-02-26T01:51:12;28.45;;;16.58;;
82705;SDS011;72428;41.978;21.464;2024-02-26T01:53:39;24.77;;;15.88;;
82705;SDS011;72428;41.978;21.464;2024-02-26T01:56:06;26.00;;;17.40;;
82705;SDS011;72428;41.978;21.464;2024-02-26T01:58:32;25.85;;;16.33;;
82705;SDS011;72428;41.978;21.464;2024-02-26T02:00:59;26.88;;;15.80;;
82705;SDS011;72428;41.978;21.464;2024-02-26T02:03:26;28.55;;;18.48;;
82705;SDS011;72428;41.978;21.464;2024-02-26T02:05:53;32.40;;;19.42;;
82705;SDS011;72428;41.978;21.464;2024-02-26T02:08:19;28.20;;;16.40;;
82705;SDS011;72428;41.978;21.464;2024-02-26T02:10:45;27.10;;;17.08;;
82705;SDS011;72428;41.978;21.464;2024-02-26T02:13:13;26.70;;;17.80;;
82705;SDS011;72428;41.978;21.464;2024-02-26T02:15:39;29.38;;;17.50;;
82705;SDS011;72428;41.978;21.464;2024-02-26T02:18:05;28.45;;;18.25;;
82705;SDS011;72428;41.978;21.464;2024-02-26T02:20:35;28.63;;;18.52;;
82705;SDS011;72428;41.978;21.464;2024-02-26T02:23:02;35.03;;;21.60;;
82705;SDS011;72428;41.978;21.464;2024-02-26T02:25:28;37.88;;;21.40;;
82705;SDS011;72428;41.978;21.464;2024-02-26T02:27:54;37.47;;;21.30;;
82705;SDS011;72428;41.978;21.464;2024-02-26T02:30:21;32.47;;;19.65;;
82705;SDS011;72428;41.978;21.464;2024-02-26T02:32:49;31.85;;;18.63;;
82705;SDS011;72428;41.978;21.464;2024-02-26T02:35:15;34.33;;;19.73;;
82705;SDS011;72428;41.978;21.464;2024-02-26T02:37:41;27.25;;;17.42;;
82705;SDS011;72428;41.978;21.464;2024-02-26T02:40:07;26.35;;;17.85;;
82705;SDS011;72428;41.978;21.464;2024-02-26T02:42:33;29.75;;;19.38;;
82705;SDS011;72428;41.978;21.464;2024-02-26T02:44:59;28.75;;;19.23;;
82705;SDS011;72428;41.978;21.464;2024-02-26T02:47:25;31.70;;;19.48;;
82705;SDS011;72428;41.978;21.464;2024-02-26T02:49:52;28.95;;;18.25;;
82705;SDS011;72428;41.978;21.464;2024-02-26T02:52:18;34.63;;;19.85;;
82705;SDS011;72428;41.978;21.464;2024-02-26T02:54:44;30.67;;;18.33;;
82705;SDS011;72428;41.978;21.464;2024-02-26T02:57:12;39.63;;;20.52;;
82705;SDS011;72428;41.978;21.464;2024-02-26T02:59:38;26.77;;;18.17;;
82705;SDS011;72428;41.978;21.464;2024-02-26T03:02:05;27.17;;;16.27;;
82705;SDS011;72428;41.978;21.464;2024-02-26T03:04:31;28.08;;;19.60;;
82705;SDS011;72428;41.978;21.464;2024-02-26T03:06:57;30.10;;;18.30;;
82705;SDS011;72428;41.978;21.464;2024-02-26T03:09:25;33.03;;;18.40;;
82705;SDS011;72428;41.978;21.464;2024-02-26T03:11:51;29.67;;;20.30;;
82705;SDS011;72428;41.978;21.464;2024-02-26T03:14:17;33.28;;;20.00;;
82705;SDS011;72428;41.978;21.464;2024-02-26T03:16:43;31.05;;;19.17;;
82705;SDS011;72428;41.978;21.464;2024-02-26T03:19:09;31.95;;;17.90;;
82705;SDS011;72428;41.978;21.464;2024-02-26T03:21:35;32.25;;;20.20;;
82705;SDS011;72428;41.978;21.464;2024-02-26T03:24:01;29.38;;;20.05;;
82705;SDS011;72428;41.978;21.464;2024-02-26T03:26:28;30.88;;;18.58;;
82705;SDS011;72428;41.978;21.464;2024-02-26T03:28:56;27.48;;;18.35;;
82705;SDS011;72428;41.978;21.464;2024-02-26T03:31:22;28.85;;;20.17;;
82705;SDS011;72428;41.978;21.464;2024-02-26T03:33:48;31.42;;;20.75;;
82705;SDS011;72428;41.978;21.464;2024-02-26T03:36:14;33.03;;;19.50;;
82705;SDS011;72428;41.978;21.464;2024-02-26T03:38:40;31.02;;;20.75;;
82705;SDS011;72428;41.978;21.464;2024-02-26T03:41:06;36.55;;;20.48;;
82705;SDS011;72428;41.978;21.464;2024-02-26T03:43:33;36.10;;;20.17;;
82705;SDS011;72428;41.978;21.464;2024-02-26T03:45:59;29.80;;;18.85;;
82705;SDS011;72428;41.978;21.464;2024-02-26T03:48:26;33.88;;;21.33;;
82705;SDS011;72428;41.978;21.464;2024-02-26T03:50:52;31.13;;;21.38;;
82705;SDS011;72428;41.978;21.464;2024-02-26T03:53:18;34.15;;;20.05;;
82705;SDS011;72428;41.978;21.464;2024-02-26T03:55:44;34.95;;;19.65;;
82705;SDS011;72428;41.978;21.464;2024-02-26T03:58:12;30.83;;;18.83;;
82705;SDS011;72428;41.978;21.464;2024-02-26T04:00:38;35.92;;;20.15;;
82705;SDS011;72428;41.978;21.464;2024-02-26T04:03:04;28.35;;;18.65;;
82705;SDS011;72428;41.978;21.464;2024-02-26T04:05:30;34.53;;;20.80;;
82705;SDS011;72428;41.978;21.464;2024-02-26T04:07:56;32.13;;;19.90;;
82705;SDS011;72428;41.978;21.464;2024-02-26T04:10:22;31.15;;;21.55;;
82705;SDS011;72428;41.978;21.464;2024-02-26T04:12:48;46.53;;;20.42;;
82705;SDS011;72428;41.978;21.464;2024-02-26T04:15:14;37.85;;;23.98;;
82705;SDS011;72428;41.978;21.464;2024-02-26T04:17:40;38.78;;;23.63;;
82705;SDS011;72428;41.978;21.464;2024-02-26T04:20:07;35.25;;;21.83;;
82705;SDS011;72428;41.978;21.464;2024-02-26T04:22:34;34.13;;;21.65;;
82705;SDS011;72428;41.978;21.464;2024-02-26T04:25:00;35.92;;;21.73;;
82705;SDS011;72428;41.978;21.464;2024-02-26T04:27:28;39.58;;;22.17;;
82705;SDS011;72428;41.978;21.464;2024-02-26T04:29:56;39.67;;;24.40;;
82705;SDS011;72428;41.978;21.464;2024-02-26T04:32:22;36.92;;;22.88;;
82705;SDS011;72428;41.978;21.464;2024-02-26T04:34:48;35.72;;;21.25;;
82705;SDS011;72428;41.978;21.464;2024-02-26T04:37:14;37.80;;;22.02;;
82705;SDS011;72428;41.978;21.464;2024-02-26T04:39:40;41.00;;;22.70;;
82705;SDS011;72428;41.978;21.464;2024-02-26T04:42:06;36.28;;;22.30;;
82705;SDS011;72428;41.978;21.464;2024-02-26T04:44:32;39.45;;;25.35;;
82705;SDS011;72428;41.978;21.464;2024-02-26T04:46:58;33.30;;;21.50;;
82705;SDS011;72428;41.978;21.464;2024-02-26T04:49:26;35.42;;;23.15;;
82705;SDS011;72428;41.978;21.464;2024-02-26T04:51:52;36.70;;;24.15;;
82705;SDS011;72428;41.978;21.464;2024-02-26T04:54:19;32.47;;;21.00;;
82705;SDS011;72428;41.978;21.464;2024-02-26T04:56:45;35.13;;;19.27;;
82705;SDS011;72428;41.978;21.464;2024-02-26T04:59:11;33.83;;;20.88;;
82705;SDS011;72428;41.978;21.464;2024-02-26T05:01:37;34.95;;;21.63;;
82705;SDS011;72428;41.978;21.464;2024-02-26T05:04:04;33.55;;;20.95;;
82705;SDS011;72428;41.978;21.464;2024-02-26T05:06:30;33.05;;;19.90;;
82705;SDS011;72428;41.978;21.464;2024-02-26T05:08:56;31.65;;;21.40;;
82705;SDS011;72428;41.978;21.464;2024-02-26T05:11:22;39.28;;;20.65;;
82705;SDS011;72428;41.978;21.464;2024-02-26T05:13:48;32.92;;;19.92;;
82705;SDS011;72428;41.978;21.464;2024-02-26T05:16:14;36.85;;;20.80;;
82705;SDS011;72428;41.978;21.464;2024-02-26T05:18:40;38.13;;;22.17;;
82705;SDS011;72428;41.978;21.464;2024-02-26T05:21:06;39.95;;;20.95;;
82705;SDS011;72428;41.978;21.464;2024-02-26T05:23:32;35.92;;;22.27;;
82705;SDS011;72428;41.978;21.464;2024-02-26T05:25:59;37.65;;;21.63;;
82705;SDS011;72428;41.978;21.464;2024-02-26T05:28:25;35.92;;;21.50;;
82705;SDS011;72428;41.978;21.464;2024-02-26T05:30:51;33.97;;;20.65;;
82705;SDS011;72428;41.978;21.464;2024-02-26T05:33:17;40.95;;;24.50;;
82705;SDS011;72428;41.978;21.464;2024-02-26T05:35:43;36.08;;;20.73;;
82705;SDS011;72428;41.978;21.464;2024-02-26T05:38:09;35.38;;;20.70;;
82705;SDS011;72428;41.978;21.464;2024-02-26T05:40:35;44.85;;;21.20;;
82705;SDS011;72428;41.978;21.464;2024-02-26T05:43:01;40.83;;;23.33;;
82705;SDS011;72428;41.978;21.464;2024-02-26T05:45:28;36.85;;;23.30;;
82705;SDS011;72428;41.978;21.464;2024-02-26T05:47:54;37.60;;;21.45;;
82705;SDS011;72428;41.978;21.464;2024-02-26T05:50:20;44.50;;;23.67;;
82705;SDS011;72428;41.978;21.464;2024-02-26T05:52:46;33.53;;;20.77;;
82705;SDS011;72428;41.978;21.464;2024-02-26T05:55:12;34.60;;;22.10;;
82705;SDS011;72428;41.978;21.464;2024-02-26T05:57:38;35.78;;;22.48;;
82705;SDS011;72428;41.978;21.464;2024-02-26T06:00:05;39.28;;;20.88;;
82705;SDS011;72428;41.978;21.464;2024-02-26T06:02:31;46.47;;;23.95;;
82705;SDS011;72428;41.978;21.464;2024-02-26T06:04:57;37.33;;;21.13;;
82705;SDS011;72428;41.978;21.464;2024-02-26T06:07:24;38.58;;;23.70;;
82705;SDS011;72428;41.978;21.464;2024-02-26T06:09:50;56.63;;;26.45;;
82705;SDS011;72428;41.978;21.464;2024-02-26T06:12:16;63.50;;;26.88;;
82705;SDS011;72428;41.978;21.464;2024-02-26T06:14:42;44.15;;;25.35;;
82705;SDS011;72428;41.978;21.464;2024-02-26T06:17:08;38.20;;;22.00;;
82705;SDS011;72428;41.978;21.464;2024-02-26T06:19:34;41.53;;;23.35;;
82705;SDS011;72428;41.978;21.464;2024-02-26T06:22:01;39.75;;;23.23;;
82705;SDS011;72428;41.978;21.464;2024-02-26T06:24:27;38.00;;;24.17;;
82705;SDS011;72428;41.978;21.464;2024-02-26T06:26:53;43.75;;;24.52;;
82705;SDS011;72428;41.978;21.464;2024-02-26T06:29:19;77.30;;;43.13;;
82705;SDS011;72428;41.978;21.464;2024-02-26T06:31:45;48.58;;;23.92;;
82705;SDS011;72428;41.978;21.464;2024-02-26T06:34:13;43.67;;;23.95;;
82705;SDS011;72428;41.978;21.464;2024-02-26T06:36:39;40.25;;;22.25;;
82705;SDS011;72428;41.978;21.464;2024-02-26T06:39:05;39.42;;;23.63;;
82705;SDS011;72428;41.978;21.464;2024-02-26T06:41:31;42.88;;;26.52;;
82705;SDS011;72428;41.978;21.464;2024-02-26T06:43:57;38.63;;;24.20;;
82705;SDS011;72428;41.978;21.464;2024-02-26T06:46:23;46.88;;;24.95;;
82705;SDS011;72428;41.978;21.464;2024-02-26T06:48:51;38.80;;;20.92;;
82705;SDS011;72428;41.978;21.464;2024-02-26T06:51:17;38.22;;;20.75;;
82705;SDS011;72428;41.978;21.464;2024-02-26T06:53:43;38.90;;;23.30;;
82705;SDS011;72428;41.978;21.464;2024-02-26T06:56:09;40.38;;;21.85;;
82705;SDS011;72428;41.978;21.464;2024-02-26T06:58:35;39.05;;;23.98;;
82705;SDS011;72428;41.978;21.464;2024-02-26T07:01:01;34.25;;;21.60;;
82705;SDS011;72428;41.978;21.464;2024-02-26T07:03:27;39.03;;;22.35;;
82705;SDS011;72428;41.978;21.464;2024-02-26T07:05:54;37.80;;;22.90;;
82705;SDS011;72428;41.978;21.464;2024-02-26T07:08:20;34.00;;;21.48;;
82705;SDS011;72428;41.978;21.464;2024-02-26T07:10:46;32.60;;;18.85;;
82705;SDS011;72428;41.978;21.464;2024-02-26T07:13:13;34.63;;;20.05;;
82705;SDS011;72428;41.978;21.464;2024-02-26T07:15:39;42.30;;;23.80;;
82705;SDS011;72428;41.978;21.464;2024-02-26T07:18:05;34.42;;;22.17;;
82705;SDS011;72428;41.978;21.464;2024-02-26T07:20:31;32.90;;;20.15;;
82705;SDS011;72428;41.978;21.464;2024-02-26T07:22:58;39.72;;;23.35;;
82705;SDS011;72428;41.978;21.464;2024-02-26T07:25:24;40.17;;;22.08;;
82705;SDS011;72428;41.978;21.464;2024-02-26T07:27:50;37.20;;;23.08;;
82705;SDS011;72428;41.978;21.464;2024-02-26T07:30:16;37.78;;;23.13;;
82705;SDS011;72428;41.978;21.464;2024-02-26T07:32:42;37.15;;;21.63;;
82705;SDS011;72428;41.978;21.464;2024-02-26T07:35:09;37.50;;;23.23;;
82705;SDS011;72428;41.978;21.464;2024-02-26T07:37:35;45.47;;;24.35;;
82705;SDS011;72428;41.978;21.464;2024-02-26T07:40:01;35.67;;;21.52;;
82705;SDS011;72428;41.978;21.464;2024-02-26T07:42:28;43.00;;;24.48;;
82705;SDS011;72428;41.978;21.464;2024-02-26T07:44:54;43.83;;;24.05;;
82705;SDS011;72428;41.978;21.464;2024-02-26T07:47:21;37.90;;;23.67;;
82705;SDS011;72428;41.978;21.464;2024-02-26T07:49:47;35.90;;;23.33;;
82705;SDS011;72428;41.978;21.464;2024-02-26T07:52:13;35.08;;;20.92;;
82705;SDS011;72428;41.978;21.464;2024-02-26T07:54:39;45.00;;;21.35;;
82705;SDS011;72428;41.978;21.464;2024-02-26T07:57:05;36.90;;;23.80;;
82705;SDS011;72428;41.978;21.464;2024-02-26T07:59:32;33.10;;;20.50;;
82705;SDS011;72428;41.978;21.464;2024-02-26T08:01:58;39.17;;;19.90;;
82705;SDS011;72428;41.978;21.464;2024-02-26T08:04:25;48.42;;;26.80;;
82705;SDS011;72428;41.978;21.464;2024-02-26T08:06:51;32.35;;;21.17;;
82705;SDS011;72428;41.978;21.464;2024-02-26T08:09:17;48.60;;;26.70;;
82705;SDS011;72428;41.978;21.464;2024-02-26T08:11:44;41.97;;;23.92;;
82705;SDS011;72428;41.978;21.464;2024-02-26T08:14:10;45.30;;;26.73;;
82705;SDS011;72428;41.978;21.464;2024-02-26T08:16:36;40.97;;;27.15;;
82705;SDS011;72428;41.978;21.464;2024-02-26T08:19:02;43.83;;;27.55;;
82705;SDS011;72428;41.978;21.464;2024-02-26T08:21:28;47.17;;;28.45;;
82705;SDS011;72428;41.978;21.464;2024-02-26T08:23:54;27.42;;;15.45;;
82705;SDS011;72428;41.978;21.464;2024-02-26T08:26:20;24.85;;;13.88;;
82705;SDS011;72428;41.978;21.464;2024-02-26T08:28:47;23.77;;;15.73;;
82705;SDS011;72428;41.978;21.464;2024-02-26T08:31:16;23.95;;;14.48;;
82705;SDS011;72428;41.978;21.464;2024-02-26T08:33:42;26.67;;;16.73;;
82705;SDS011;72428;41.978;21.464;2024-02-26T08:36:08;21.55;;;14.25;;
82705;SDS011;72428;41.978;21.464;2024-02-26T08:38:34;25.25;;;16.65;;
82705;SDS011;72428;41.978;21.464;2024-02-26T08:41:01;21.77;;;14.50;;
82705;SDS011;72428;41.978;21.464;2024-02-26T08:43:30;24.08;;;16.27;;
82705;SDS011;72428;41.978;21.464;2024-02-26T08:45:57;27.42;;;16.80;;
82705;SDS011;72428;41.978;21.464;2024-02-26T08:48:23;32.83;;;19.95;;
82705;SDS011;72428;41.978;21.464;2024-02-26T08:50:49;28.63;;;18.80;;
82705;SDS011;72428;41.978;21.464;2024-02-26T08:53:16;33.00;;;18.95;;
82705;SDS011;72428;41.978;21.464;2024-02-26T08:55:42;27.42;;;17.67;;
82705;SDS011;72428;41.978;21.464;2024-02-26T08:58:08;22.25;;;13.15;;
82705;SDS011;72428;41.978;21.464;2024-02-26T09:00:34;21.75;;;12.18;;
82705;SDS011;72428;41.978;21.464;2024-02-26T09:03:00;18.85;;;10.52;;
82705;SDS011;72428;41.978;21.464;2024-02-26T09:05:26;22.25;;;13.18;;
82705;SDS011;72428;41.978;21.464;2024-02-26T09:07:52;28.02;;;16.45;;
82705;SDS011;72428;41.978;21.464;2024-02-26T09:10:19;30.75;;;16.45;;
82705;SDS011;72428;41.978;21.464;2024-02-26T09:12:45;24.27;;;15.85;;
82705;SDS011;72428;41.978;21.464;2024-02-26T09:15:11;24.27;;;11.93;;
82705;SDS011;72428;41.978;21.464;2024-02-26T09:17:37;19.10;;;11.48;;
82705;SDS011;72428;41.978;21.464;2024-02-26T09:20:04;20.38;;;11.10;;
82705;SDS011;72428;41.978;21.464;2024-02-26T09:22:31;15.15;;;8.57;;
82705;SDS011;72428;41.978;21.464;2024-02-26T09:24:57;20.02;;;10.18;;
82705;SDS011;72428;41.978;21.464;2024-02-26T09:27:23;17.48;;;8.63;;
82705;SDS011;72428;41.978;21.464;2024-02-26T09:29:49;16.65;;;9.80;;
82705;SDS011;72428;41.978;21.464;2024-02-26T09:32:16;18.80;;;9.57;;
82705;SDS011;72428;41.978;21.464;2024-02-26T09:34:43;25.05;;;13.90;;
82705;SDS011;72428;41.978;21.464;2024-02-26T09:37:09;23.23;;;8.85;;
82705;SDS011;72428;41.978;21.464;2024-02-26T09:39:35;16.52;;;8.23;;
82705;SDS011;72428;41.978;21.464;2024-02-26T09:42:02;19.17;;;9.35;;
82705;SDS011;72428;41.978;21.464;2024-02-26T09:44:31;23.65;;;9.95;;
82705;SDS011;72428;41.978;21.464;2024-02-26T09:47:01;16.65;;;7.68;;
82705;SDS011;72428;41.978;21.464;2024-02-26T09:49:28;12.45;;;6.57;;
82705;SDS011;72428;41.978;21.464;2024-02-26T09:51:54;10.52;;;6.18;;
82705;SDS011;72428;41.978;21.464;2024-02-26T09:54:23;12.10;;;6.50;;
82705;SDS011;72428;41.978;21.464;2024-02-26T09:56:51;10.57;;;6.32;;
82705;SDS011;72428;41.978;21.464;2024-02-26T09:59:19;10.23;;;5.47;;
82705;SDS011;72428;41.978;21.464;2024-02-26T10:01:45;16.60;;;8.63;;
82705;SDS011;72428;41.978;21.464;2024-02-26T10:04:11;11.50;;;5.97;;
82705;SDS011;72428;41.978;21.464;2024-02-26T10:06:38;13.95;;;5.43;;
82705;SDS011;72428;41.978;21.464;2024-02-26T10:09:05;10.60;;;5.32;;
82705;SDS011;72428;41.978;21.464;2024-02-26T10:11:32;10.63;;;5.65;;
82705;SDS011;72428;41.978;21.464;2024-02-26T10:13:58;12.82;;;5.53;;
82705;SDS011;72428;41.978;21.464;2024-02-26T10:16:25;11.77;;;5.03;;
82705;SDS011;72428;41.978;21.464;2024-02-26T10:18:52;8.80;;;4.75;;
82705;SDS011;72428;41.978;21.464;2024-02-26T10:21:21;15.02;;;5.78;;
82705;SDS011;72428;41.978;21.464;2024-02-26T10:23:48;9.73;;;4.72;;
82705;SDS011;72428;41.978;21.464;2024-02-26T10:26:15;12.25;;;5.43;;
82705;SDS011;72428;41.978;21.464;2024-02-26T10:28:42;11.25;;;4.75;;
82705;SDS011;72428;41.978;21.464;2024-02-26T10:31:09;8.18;;;5.75;;
82705;SDS011;72428;41.978;21.464;2024-02-26T10:33:36;9.27;;;4.38;;
82705;SDS011;72428;41.978;21.464;2024-02-26T10:36:03;15.27;;;7.45;;
82705;SDS011;72428;41.978;21.464;2024-02-26T10:38:30;8.07;;;4.40;;
82705;SDS011;72428;41.978;21.464;2024-02-26T10:40:56;10.95;;;3.70;;
82705;SDS011;72428;41.978;21.464;2024-02-26T10:43:22;13.13;;;3.80;;
82705;SDS011;72428;41.978;21.464;2024-02-26T10:45:48;7.82;;;4.03;;
82705;SDS011;72428;41.978;21.464;2024-02-26T10:48:14;8.05;;;3.35;;
82705;SDS011;72428;41.978;21.464;2024-02-26T10:50:41;10.70;;;4.30;;
82705;SDS011;72428;41.978;21.464;2024-02-26T10:53:19;10.65;;;4.45;;
82705;SDS011;72428;41.978;21.464;2024-02-26T10:55:57;11.02;;;3.05;;
82705;SDS011;72428;41.978;21.464;2024-02-26T10:58:23;10.32;;;3.83;;
82705;SDS011;72428;41.978;21.464;2024-02-26T11:00:50;10.18;;;3.45;;
82705;SDS011;72428;41.978;21.464;2024-02-26T11:03:16;15.13;;;3.72;;
82705;SDS011;72428;41.978;21.464;2024-02-26T11:05:46;11.70;;;4.15;;
82705;SDS011;72428;41.978;21.464;2024-02-26T11:08:12;10.95;;;4.07;;
82705;SDS011;72428;41.978;21.464;2024-02-26T11:10:39;9.68;;;3.55;;
82705;SDS011;72428;41.978;21.464;2024-02-26T11:13:06;7.53;;;3.40;;
82705;SDS011;72428;41.978;21.464;2024-02-26T11:15:32;8.30;;;2.92;;
82705;SDS011;72428;41.978;21.464;2024-02-26T11:17:59;9.40;;;3.88;;
82705;SDS011;72428;41.978;21.464;2024-02-26T11:23:10;8.93;;;3.50;;
82705;SDS011;72428;41.978;21.464;2024-02-26T11:25:36;9.43;;;3.75;;
82705;SDS011;72428;41.978;21.464;2024-02-26T11:28:05;8.20;;;3.13;;
82705;SDS011;72428;41.978;21.464;2024-02-26T11:30:33;10.55;;;3.95;;
82705;SDS011;72428;41.978;21.464;2024-02-26T11:33:00;7.90;;;2.88;;
82705;SDS011;72428;41.978;21.464;2024-02-26T11:35:26;6.25;;;3.10;;
82705;SDS011;72428;41.978;21.464;2024-02-26T11:40:19;9.88;;;3.38;;
82705;SDS011;72428;41.978;21.464;2024-02-26T11:42:46;8.32;;;4.43;;
82705;SDS011;72428;41.978;21.464;2024-02-26T11:47:58;8.25;;;3.05;;
82705;SDS011;72428;41.978;21.464;2024-02-26T11:50:34;18.05;;;3.47;;
82705;SDS011;72428;41.978;21.464;2024-02-26T11:53:22;8.00;;;3.20;;
82705;SDS011;72428;41.978;21.464;2024-02-26T11:55:48;7.53;;;3.13;;
82705;SDS011;72428;41.978;21.464;2024-02-26T11:58:34;8.10;;;2.90;;
82705;SDS011;72428;41.978;21.464;2024-02-26T12:01:00;7.68;;;3.38;;
82705;SDS011;72428;41.978;21.464;2024-02-26T12:03:28;5.82;;;2.53;;
82705;SDS011;72428;41.978;21.464;2024-02-26T12:05:54;8.52;;;3.15;;
82705;SDS011;72428;41.978;21.464;2024-02-26T12:08:20;7.88;;;3.55;;
82705;SDS011;72428;41.978;21.464;2024-02-26T12:10:48;9.38;;;3.00;;
82705;SDS011;72428;41.978;21.464;2024-02-26T12:13:14;10.82;;;3.47;;
82705;SDS011;72428;41.978;21.464;2024-02-26T12:15:42;10.70;;;3.53;;
82705;SDS011;72428;41.978;21.464;2024-02-26T12:18:09;10.50;;;5.10;;
82705;SDS011;72428;41.978;21.464;2024-02-26T12:20:38;10.20;;;3.92;;
82705;SDS011;72428;41.978;21.464;2024-02-26T12:23:04;10.18;;;3.33;;
82705;SDS011;72428;41.978;21.464;2024-02-26T12:25:31;10.77;;;3.67;;
82705;SDS011;72428;41.978;21.464;2024-02-26T12:27:58;7.13;;;3.25;;
82705;SDS011;72428;41.978;21.464;2024-02-26T12:30:24;14.20;;;4.60;;
82705;SDS011;72428;41.978;21.464;2024-02-26T12:32:51;9.73;;;3.50;;
82705;SDS011;72428;41.978;21.464;2024-02-26T12:35:22;8.45;;;3.47;;
82705;SDS011;72428;41.978;21.464;2024-02-26T12:37:48;9.95;;;3.30;;
82705;SDS011;72428;41.978;21.464;2024-02-26T12:40:16;9.70;;;3.45;;
82705;SDS011;72428;41.978;21.464;2024-02-26T12:42:42;14.07;;;3.33;;
82705;SDS011;72428;41.978;21.464;2024-02-26T12:45:09;7.53;;;2.65;;
82705;SDS011;72428;41.978;21.464;2024-02-26T12:47:40;9.25;;;2.70;;
82705;SDS011;72428;41.978;21.464;2024-02-26T12:50:06;10.40;;;3.03;;
82705;SDS011;72428;41.978;21.464;2024-02-26T12:52:33;7.60;;;2.70;;
82705;SDS011;72428;41.978;21.464;2024-02-26T12:55:00;11.70;;;4.25;;
82705;SDS011;72428;41.978;21.464;2024-02-26T12:57:27;8.45;;;2.67;;
82705;SDS011;72428;41.978;21.464;2024-02-26T12:59:56;8.48;;;3.10;;
82705;SDS011;72428;41.978;21.464;2024-02-26T13:02:24;9.77;;;3.03;;
82705;SDS011;72428;41.978;21.464;2024-02-26T13:04:51;7.32;;;3.40;;
82705;SDS011;72428;41.978;21.464;2024-02-26T13:07:17;7.45;;;3.35;;
82705;SDS011;72428;41.978;21.464;2024-02-26T13:09:43;7.60;;;2.83;;
82705;SDS011;72428;41.978;21.464;2024-02-26T13:12:10;22.25;;;3.80;;
82705;SDS011;72428;41.978;21.464;2024-02-26T13:14:37;12.18;;;3.28;;
82705;SDS011;72428;41.978;21.464;2024-02-26T13:17:03;13.27;;;7.03;;
82705;SDS011;72428;41.978;21.464;2024-02-26T13:19:29;14.93;;;5.55;;
82705;SDS011;72428;41.978;21.464;2024-02-26T13:21:55;11.32;;;3.80;;
82705;SDS011;72428;41.978;21.464;2024-02-26T13:24:22;7.65;;;3.78;;
82705;SDS011;72428;41.978;21.464;2024-02-26T13:26:56;15.98;;;3.60;;
82705;SDS011;72428;41.978;21.464;2024-02-26T13:29:22;10.30;;;3.28;;
82705;SDS011;72428;41.978;21.464;2024-02-26T13:31:54;9.30;;;4.00;;
82705;SDS011;72428;41.978;21.464;2024-02-26T13:34:25;17.50;;;4.53;;
82705;SDS011;72428;41.978;21.464;2024-02-26T13:36:52;13.20;;;3.65;;
82705;SDS011;72428;41.978;21.464;2024-02-26T13:39:22;9.95;;;3.03;;
82705;SDS011;72428;41.978;21.464;2024-02-26T13:41:49;8.95;;;3.05;;
82705;SDS011;72428;41.978;21.464;2024-02-26T13:44:15;7.40;;;3.58;;
82705;SDS011;72428;41.978;21.464;2024-02-26T13:46:41;11.52;;;3.38;;
82705;SDS011;72428;41.978;21.464;2024-02-26T13:49:08;12.48;;;3.75;;
82705;SDS011;72428;41.978;21.464;2024-02-26T13:51:36;10.48;;;4.10;;
82705;SDS011;72428;41.978;21.464;2024-02-26T13:54:02;7.88;;;3.78;;
82705;SDS011;72428;41.978;21.464;2024-02-26T13:56:29;9.75;;;4.68;;
82705;SDS011;72428;41.978;21.464;2024-02-26T13:58:55;15.45;;;3.75;;
82705;SDS011;72428;41.978;21.464;2024-02-26T14:01:21;22.48;;;5.43;;
82705;SDS011;72428;41.978;21.464;2024-02-26T14:03:47;28.27;;;7.15;;
82705;SDS011;72428;41.978;21.464;2024-02-26T14:06:13;17.13;;;8.00;;
82705;SDS011;72428;41.978;21.464;2024-02-26T14:08:40;29.88;;;8.52;;
82705;SDS011;72428;41.978;21.464;2024-02-26T14:11:06;9.73;;;5.15;;
82705;SDS011;72428;41.978;21.464;2024-02-26T14:13:32;12.13;;;7.55;;
82705;SDS011;72428;41.978;21.464;2024-02-26T14:15:58;10.93;;;4.18;;
82705;SDS011;72428;41.978;21.464;2024-02-26T14:18:24;14.00;;;5.10;;
82705;SDS011;72428;41.978;21.464;2024-02-26T14:20:52;18.25;;;11.38;;